sensor_id;sensor_type;location;lat;lon;timestamp;P1;durP1;ratioP1;P2;durP2;ratioP2
19905;SDS011;10115;50.906;4.438;2024-02-21T00:00:45;17.80;;;16.23;;
19905;SDS011;10115;50.906;4.438;2024-02-21T00:03:11;17.70;;;15.93;;
19905;SDS011;10115;50.906;4.438;2024-02-21T00:05:37;17.00;;;15.50;;
19905;SDS011;10115;50.906;4.438;2024-02-21T00:08:03;15.80;;;14.43;;
19905;SDS011;10115;50.906;4.438;2024-02-21T00:10:29;16.53;;;15.30;;
19905;SDS011;10115;50.906;4.438;2024-02-21T00:12:56;16.50;;;15.13;;
19905;SDS011;10115;50.906;4.438;2024-02-21T00:15:22;20.77;;;15.40;;
19905;SDS011;10115;50.906;4.438;2024-02-21T00:17:48;15.97;;;14.63;;
19905;SDS011;10115;50.906;4.438;2024-02-21T00:20:14;16.13;;;14.97;;
19905;SDS011;10115;50.906;4.438;2024-02-21T00:22:39;15.43;;;14.17;;
19905;SDS011;10115;50.906;4.438;2024-02-21T00:25:05;26.70;;;16.10;;
19905;SDS011;10115;50.906;4.438;2024-02-21T00:27:33;17.77;;;16.13;;
19905;SDS011;10115;50.906;4.438;2024-02-21T00:29:58;16.73;;;15.37;;
19905;SDS011;10115;50.906;4.438;2024-02-21T00:32:24;17.17;;;15.80;;
19905;SDS011;10115;50.906;4.438;2024-02-21T00:34:49;18.20;;;16.43;;
19905;SDS011;10115;50.906;4.438;2024-02-21T00:37:15;14.77;;;13.77;;
19905;SDS011;10115;50.906;4.438;2024-02-21T00:39:41;17.50;;;14.80;;
19905;SDS011;10115;50.906;4.438;2024-02-21T00:42:07;22.67;;;16.80;;
19905;SDS011;10115;50.906;4.438;2024-02-21T00:44:33;15.93;;;14.93;;
19905;SDS011;10115;50.906;4.438;2024-02-21T00:46:58;21.90;;;15.97;;
19905;SDS011;10115;50.906;4.438;2024-02-21T00:49:24;15.77;;;14.43;;
19905;SDS011;10115;50.906;4.438;2024-02-21T00:51:50;17.77;;;15.90;;
19905;SDS011;10115;50.906;4.438;2024-02-21T00:54:15;20.47;;;15.90;;
19905;SDS011;10115;50.906;4.438;2024-02-21T00:56:42;15.70;;;14.20;;
19905;SDS011;10115;50.906;4.438;2024-02-21T00:59:08;15.47;;;14.27;;
19905;SDS011;10115;50.906;4.438;2024-02-21T01:01:33;16.90;;;15.17;;
19905;SDS011;10115;50.906;4.438;2024-02-21T01:03:59;16.77;;;15.10;;
19905;SDS011;10115;50.906;4.438;2024-02-21T01:06:25;20.20;;;16.10;;
19905;SDS011;10115;50.906;4.438;2024-02-21T01:08:51;15.30;;;14.17;;
19905;SDS011;10115;50.906;4.438;2024-02-21T01:11:16;16.30;;;14.50;;
19905;SDS011;10115;50.906;4.438;2024-02-21T01:13:42;13.67;;;12.83;;
19905;SDS011;10115;50.906;4.438;2024-02-21T01:16:08;15.73;;;14.43;;
19905;SDS011;10115;50.906;4.438;2024-02-21T01:18:34;14.73;;;13.90;;
19905;SDS011;10115;50.906;4.438;2024-02-21T01:20:59;17.50;;;15.77;;
19905;SDS011;10115;50.906;4.438;2024-02-21T01:23:25;15.90;;;14.63;;
19905;SDS011;10115;50.906;4.438;2024-02-21T01:25:51;17.50;;;15.93;;
19905;SDS011;10115;50.906;4.438;2024-02-21T01:28:17;14.90;;;13.57;;
19905;SDS011;10115;50.906;4.438;2024-02-21T01:30:43;15.87;;;14.50;;
19905;SDS011;10115;50.906;4.438;2024-02-21T01:33:09;15.63;;;14.27;;
19905;SDS011;10115;50.906;4.438;2024-02-21T01:35:35;15.27;;;13.67;;
19905;SDS011;10115;50.906;4.438;2024-02-21T01:38:02;14.43;;;13.17;;
19905;SDS011;10115;50.906;4.438;2024-02-21T01:40:27;14.80;;;13.83;;
19905;SDS011;10115;50.906;4.438;2024-02-21T01:42:55;15.03;;;14.03;;
19905;SDS011;10115;50.906;4.438;2024-02-21T01:45:21;18.23;;;15.13;;
19905;SDS011;10115;50.906;4.438;2024-02-21T01:47:47;17.33;;;15.60;;
19905;SDS011;10115;50.906;4.438;2024-02-21T01:50:14;16.20;;;14.80;;
19905;SDS011;10115;50.906;4.438;2024-02-21T01:52:40;16.33;;;14.80;;
19905;SDS011;10115;50.906;4.438;2024-02-21T01:55:08;17.20;;;15.90;;
19905;SDS011;10115;50.906;4.438;2024-02-21T01:57:35;15.90;;;14.80;;
19905;SDS011;10115;50.906;4.438;2024-02-21T02:00:01;19.73;;;15.50;;
19905;SDS011;10115;50.906;4.438;2024-02-21T02:02:27;16.13;;;14.63;;
19905;SDS011;10115;50.906;4.438;2024-02-21T02:04:54;15.57;;;14.27;;
19905;SDS011;10115;50.906;4.438;2024-02-21T02:07:20;17.90;;;16.10;;
19905;SDS011;10115;50.906;4.438;2024-02-21T02:09:45;16.73;;;15.17;;
19905;SDS011;10115;50.906;4.438;2024-02-21T02:12:11;19.03;;;15.60;;
19905;SDS011;10115;50.906;4.438;2024-02-21T02:14:37;16.30;;;14.90;;
19905;SDS011;10115;50.906;4.438;2024-02-21T02:17:02;16.10;;;14.90;;
19905;SDS011;10115;50.906;4.438;2024-02-21T02:19:28;16.47;;;15.17;;
19905;SDS011;10115;50.906;4.438;2024-02-21T02:21:56;17.00;;;15.73;;
19905;SDS011;10115;50.906;4.438;2024-02-21T02:24:32;16.80;;;15.23;;
19905;SDS011;10115;50.906;4.438;2024-02-21T02:26:57;17.50;;;15.90;;
19905;SDS011;10115;50.906;4.438;2024-02-21T02:29:23;18.13;;;16.40;;
19905;SDS011;10115;50.906;4.438;2024-02-21T02:31:49;18.43;;;16.50;;
19905;SDS011;10115;50.906;4.438;2024-02-21T02:34:14;20.70;;;18.17;;
19905;SDS011;10115;50.906;4.438;2024-02-21T02:36:40;16.87;;;15.47;;
19905;SDS011;10115;50.906;4.438;2024-02-21T02:39:06;17.23;;;14.93;;
19905;SDS011;10115;50.906;4.438;2024-02-21T02:41:34;19.67;;;17.07;;
19905;SDS011;10115;50.906;4.438;2024-02-21T02:44:01;16.27;;;14.47;;
19905;SDS011;10115;50.906;4.438;2024-02-21T02:46:26;20.13;;;15.13;;
19905;SDS011;10115;50.906;4.438;2024-02-21T02:48:52;16.97;;;15.50;;
19905;SDS011;10115;50.906;4.438;2024-02-21T02:51:17;17.93;;;16.30;;
19905;SDS011;10115;50.906;4.438;2024-02-21T02:53:43;17.37;;;15.93;;
19905;SDS011;10115;50.906;4.438;2024-02-21T02:56:13;18.73;;;16.23;;
19905;SDS011;10115;50.906;4.438;2024-02-21T02:58:42;17.13;;;15.87;;
19905;SDS011;10115;50.906;4.438;2024-02-21T03:01:08;16.73;;;15.17;;
19905;SDS011;10115;50.906;4.438;2024-02-21T03:03:34;18.87;;;15.00;;
19905;SDS011;10115;50.906;4.438;2024-02-21T03:06:00;17.03;;;15.43;;
19905;SDS011;10115;50.906;4.438;2024-02-21T03:08:26;18.00;;;16.20;;
19905;SDS011;10115;50.906;4.438;2024-02-21T03:10:51;17.70;;;15.80;;
19905;SDS011;10115;50.906;4.438;2024-02-21T03:13:17;16.47;;;14.90;;
19905;SDS011;10115;50.906;4.438;2024-02-21T03:15:42;15.63;;;14.03;;
19905;SDS011;10115;50.906;4.438;2024-02-21T03:18:08;17.43;;;15.40;;
19905;SDS011;10115;50.906;4.438;2024-02-21T03:20:34;14.63;;;13.53;;
19905;SDS011;10115;50.906;4.438;2024-02-21T03:22:59;15.13;;;13.80;;
19905;SDS011;10115;50.906;4.438;2024-02-21T03:25:25;15.77;;;14.50;;
19905;SDS011;10115;50.906;4.438;2024-02-21T03:27:51;17.67;;;15.90;;
19905;SDS011;10115;50.906;4.438;2024-02-21T03:30:16;17.97;;;15.40;;
19905;SDS011;10115;50.906;4.438;2024-02-21T03:32:42;15.83;;;14.43;;
19905;SDS011;10115;50.906;4.438;2024-02-21T03:35:08;17.43;;;15.53;;
19905;SDS011;10115;50.906;4.438;2024-02-21T03:37:34;15.90;;;14.63;;
19905;SDS011;10115;50.906;4.438;2024-02-21T03:39:59;15.60;;;14.20;;
19905;SDS011;10115;50.906;4.438;2024-02-21T03:42:25;20.57;;;15.37;;
19905;SDS011;10115;50.906;4.438;2024-02-21T03:44:51;14.90;;;14.07;;
19905;SDS011;10115;50.906;4.438;2024-02-21T03:47:16;15.67;;;14.30;;
19905;SDS011;10115;50.906;4.438;2024-02-21T03:49:42;19.63;;;15.63;;
19905;SDS011;10115;50.906;4.438;2024-02-21T03:52:07;16.93;;;15.27;;
19905;SDS011;10115;50.906;4.438;2024-02-21T03:54:34;17.40;;;15.77;;
19905;SDS011;10115;50.906;4.438;2024-02-21T03:56:59;14.10;;;13.40;;
19905;SDS011;10115;50.906;4.438;2024-02-21T03:59:25;16.03;;;14.80;;
19905;SDS011;10115;50.906;4.438;2024-02-21T04:01:53;17.03;;;15.80;;
19905;SDS011;10115;50.906;4.438;2024-02-21T04:04:19;20.20;;;15.20;;
19905;SDS011;10115;50.906;4.438;2024-02-21T04:06:46;16.90;;;15.70;;
19905;SDS011;10115;50.906;4.438;2024-02-21T04:09:15;24.27;;;18.23;;
19905;SDS011;10115;50.906;4.438;2024-02-21T04:11:41;19.43;;;15.90;;
19905;SDS011;10115;50.906;4.438;2024-02-21T04:14:06;16.53;;;14.70;;
19905;SDS011;10115;50.906;4.438;2024-02-21T04:16:32;16.90;;;15.37;;
19905;SDS011;10115;50.906;4.438;2024-02-21T04:18:58;16.67;;;15.23;;
19905;SDS011;10115;50.906;4.438;2024-02-21T04:21:23;16.50;;;14.80;;
19905;SDS011;10115;50.906;4.438;2024-02-21T04:23:49;19.07;;;15.70;;
19905;SDS011;10115;50.906;4.438;2024-02-21T04:26:15;15.77;;;14.27;;
19905;SDS011;10115;50.906;4.438;2024-02-21T04:28:41;17.47;;;15.53;;
19905;SDS011;10115;50.906;4.438;2024-02-21T04:31:06;18.27;;;16.23;;
19905;SDS011;10115;50.906;4.438;2024-02-21T04:33:32;17.60;;;15.80;;
19905;SDS011;10115;50.906;4.438;2024-02-21T04:35:57;17.13;;;15.40;;
19905;SDS011;10115;50.906;4.438;2024-02-21T04:38:24;16.80;;;15.60;;
19905;SDS011;10115;50.906;4.438;2024-02-21T04:40:50;17.77;;;15.10;;
19905;SDS011;10115;50.906;4.438;2024-02-21T04:43:15;16.33;;;15.03;;
19905;SDS011;10115;50.906;4.438;2024-02-21T04:45:41;16.63;;;15.13;;
19905;SDS011;10115;50.906;4.438;2024-02-21T04:48:07;16.60;;;15.20;;
19905;SDS011;10115;50.906;4.438;2024-02-21T04:50:32;17.30;;;15.67;;
19905;SDS011;10115;50.906;4.438;2024-02-21T04:52:58;17.33;;;15.43;;
19905;SDS011;10115;50.906;4.438;2024-02-21T04:55:24;16.87;;;15.10;;
19905;SDS011;10115;50.906;4.438;2024-02-21T04:57:49;16.07;;;14.90;;
19905;SDS011;10115;50.906;4.438;2024-02-21T05:00:15;16.73;;;15.13;;
19905;SDS011;10115;50.906;4.438;2024-02-21T05:02:41;17.57;;;15.93;;
19905;SDS011;10115;50.906;4.438;2024-02-21T05:05:07;19.43;;;15.53;;
19905;SDS011;10115;50.906;4.438;2024-02-21T05:07:34;17.17;;;15.57;;
19905;SDS011;10115;50.906;4.438;2024-02-21T05:10:00;15.30;;;14.20;;
19905;SDS011;10115;50.906;4.438;2024-02-21T05:12:25;17.40;;;15.53;;
19905;SDS011;10115;50.906;4.438;2024-02-21T05:14:51;16.77;;;14.13;;
19905;SDS011;10115;50.906;4.438;2024-02-21T05:17:17;17.87;;;16.20;;
19905;SDS011;10115;50.906;4.438;2024-02-21T05:19:42;17.30;;;15.83;;
19905;SDS011;10115;50.906;4.438;2024-02-21T05:22:08;16.80;;;15.43;;
19905;SDS011;10115;50.906;4.438;2024-02-21T05:24:34;19.87;;;14.70;;
19905;SDS011;10115;50.906;4.438;2024-02-21T05:26:59;19.10;;;15.50;;
19905;SDS011;10115;50.906;4.438;2024-02-21T05:29:25;18.03;;;15.53;;
19905;SDS011;10115;50.906;4.438;2024-02-21T05:34:16;16.03;;;14.83;;
19905;SDS011;10115;50.906;4.438;2024-02-21T05:36:42;15.37;;;14.03;;
19905;SDS011;10115;50.906;4.438;2024-02-21T05:39:09;16.47;;;15.17;;
19905;SDS011;10115;50.906;4.438;2024-02-21T05:41:34;15.60;;;14.60;;
19905;SDS011;10115;50.906;4.438;2024-02-21T05:44:00;15.70;;;14.63;;
19905;SDS011;10115;50.906;4.438;2024-02-21T05:46:26;16.13;;;14.60;;
19905;SDS011;10115;50.906;4.438;2024-02-21T05:48:51;15.47;;;14.27;;
19905;SDS011;10115;50.906;4.438;2024-02-21T05:51:17;14.80;;;13.70;;
19905;SDS011;10115;50.906;4.438;2024-02-21T05:53:43;15.70;;;14.60;;
19905;SDS011;10115;50.906;4.438;2024-02-21T05:56:12;15.33;;;14.23;;
19905;SDS011;10115;50.906;4.438;2024-02-21T05:58:38;16.57;;;14.97;;
19905;SDS011;10115;50.906;4.438;2024-02-21T06:01:04;15.80;;;14.57;;
19905;SDS011;10115;50.906;4.438;2024-02-21T06:03:31;18.77;;;14.77;;
19905;SDS011;10115;50.906;4.438;2024-02-21T06:05:57;15.77;;;14.57;;
19905;SDS011;10115;50.906;4.438;2024-02-21T06:08:23;17.50;;;15.97;;
19905;SDS011;10115;50.906;4.438;2024-02-21T06:10:49;15.37;;;14.17;;
19905;SDS011;10115;50.906;4.438;2024-02-21T06:13:17;15.57;;;13.47;;
19905;SDS011;10115;50.906;4.438;2024-02-21T06:15:42;15.57;;;14.30;;
19905;SDS011;10115;50.906;4.438;2024-02-21T06:18:08;16.33;;;14.80;;
19905;SDS011;10115;50.906;4.438;2024-02-21T06:20:33;15.53;;;14.43;;
19905;SDS011;10115;50.906;4.438;2024-02-21T06:23:01;16.07;;;14.67;;
19905;SDS011;10115;50.906;4.438;2024-02-21T06:25:27;15.20;;;14.17;;
19905;SDS011;10115;50.906;4.438;2024-02-21T06:27:52;14.23;;;13.23;;
19905;SDS011;10115;50.906;4.438;2024-02-21T06:30:18;16.17;;;14.77;;
19905;SDS011;10115;50.906;4.438;2024-02-21T06:32:44;15.23;;;13.87;;
19905;SDS011;10115;50.906;4.438;2024-02-21T06:35:09;15.07;;;14.03;;
19905;SDS011;10115;50.906;4.438;2024-02-21T06:37:35;15.17;;;14.03;;
19905;SDS011;10115;50.906;4.438;2024-02-21T06:40:01;16.07;;;13.63;;
19905;SDS011;10115;50.906;4.438;2024-02-21T06:42:28;15.63;;;14.70;;
19905;SDS011;10115;50.906;4.438;2024-02-21T06:44:54;15.63;;;14.10;;
19905;SDS011;10115;50.906;4.438;2024-02-21T06:47:21;14.70;;;13.67;;
19905;SDS011;10115;50.906;4.438;2024-02-21T06:49:50;16.07;;;14.97;;
19905;SDS011;10115;50.906;4.438;2024-02-21T06:52:19;12.77;;;12.07;;
19905;SDS011;10115;50.906;4.438;2024-02-21T06:54:45;14.73;;;13.80;;
19905;SDS011;10115;50.906;4.438;2024-02-21T06:57:12;14.23;;;13.33;;
19905;SDS011;10115;50.906;4.438;2024-02-21T06:59:39;13.97;;;13.07;;
19905;SDS011;10115;50.906;4.438;2024-02-21T07:02:05;12.80;;;12.20;;
19905;SDS011;10115;50.906;4.438;2024-02-21T07:04:31;16.63;;;15.33;;
19905;SDS011;10115;50.906;4.438;2024-02-21T07:06:56;15.23;;;14.23;;
19905;SDS011;10115;50.906;4.438;2024-02-21T07:09:22;17.77;;;15.47;;
19905;SDS011;10115;50.906;4.438;2024-02-21T07:11:47;16.43;;;15.30;;
19905;SDS011;10115;50.906;4.438;2024-02-21T07:14:17;16.93;;;15.60;;
19905;SDS011;10115;50.906;4.438;2024-02-21T07:16:43;16.33;;;15.03;;
19905;SDS011;10115;50.906;4.438;2024-02-21T07:19:09;16.17;;;14.70;;
19905;SDS011;10115;50.906;4.438;2024-02-21T07:21:34;17.73;;;16.43;;
19905;SDS011;10115;50.906;4.438;2024-02-21T07:24:03;18.23;;;16.23;;
19905;SDS011;10115;50.906;4.438;2024-02-21T07:26:29;18.40;;;16.67;;
19905;SDS011;10115;50.906;4.438;2024-02-21T07:28:56;19.00;;;17.47;;
19905;SDS011;10115;50.906;4.438;2024-02-21T07:31:22;17.80;;;16.40;;
19905;SDS011;10115;50.906;4.438;2024-02-21T07:33:47;17.90;;;16.60;;
19905;SDS011;10115;50.906;4.438;2024-02-21T07:36:14;17.63;;;16.23;;
19905;SDS011;10115;50.906;4.438;2024-02-21T07:38:40;17.33;;;16.00;;
19905;SDS011;10115;50.906;4.438;2024-02-21T07:41:06;17.13;;;15.37;;
19905;SDS011;10115;50.906;4.438;2024-02-21T07:43:32;18.03;;;16.33;;
19905;SDS011;10115;50.906;4.438;2024-02-21T07:45:58;17.80;;;16.43;;
19905;SDS011;10115;50.906;4.438;2024-02-21T07:48:23;17.03;;;16.03;;
19905;SDS011;10115;50.906;4.438;2024-02-21T07:50:52;16.13;;;14.93;;
19905;SDS011;10115;50.906;4.438;2024-02-21T07:53:17;15.37;;;14.33;;
19905;SDS011;10115;50.906;4.438;2024-02-21T07:55:45;16.73;;;14.97;;
19905;SDS011;10115;50.906;4.438;2024-02-21T07:58:10;15.80;;;14.40;;
19905;SDS011;10115;50.906;4.438;2024-02-21T08:00:36;16.40;;;15.13;;
19905;SDS011;10115;50.906;4.438;2024-02-21T08:03:02;16.27;;;15.00;;
19905;SDS011;10115;50.906;4.438;2024-02-21T08:05:28;16.93;;;15.23;;
19905;SDS011;10115;50.906;4.438;2024-02-21T08:07:55;15.40;;;14.13;;
19905;SDS011;10115;50.906;4.438;2024-02-21T08:10:20;15.20;;;14.20;;
19905;SDS011;10115;50.906;4.438;2024-02-21T08:12:46;15.27;;;14.27;;
19905;SDS011;10115;50.906;4.438;2024-02-21T08:15:12;17.03;;;15.37;;
19905;SDS011;10115;50.906;4.438;2024-02-21T08:17:37;15.80;;;14.50;;
19905;SDS011;10115;50.906;4.438;2024-02-21T08:20:06;15.73;;;14.63;;
19905;SDS011;10115;50.906;4.438;2024-02-21T08:22:32;13.97;;;13.17;;
19905;SDS011;10115;50.906;4.438;2024-02-21T08:24:58;15.30;;;14.07;;
19905;SDS011;10115;50.906;4.438;2024-02-21T08:27:24;15.53;;;14.53;;
19905;SDS011;10115;50.906;4.438;2024-02-21T08:29:50;16.60;;;15.17;;
19905;SDS011;10115;50.906;4.438;2024-02-21T08:32:15;15.00;;;14.07;;
19905;SDS011;10115;50.906;4.438;2024-02-21T08:34:41;15.37;;;14.37;;
19905;SDS011;10115;50.906;4.438;2024-02-21T08:37:07;15.60;;;14.27;;
19905;SDS011;10115;50.906;4.438;2024-02-21T08:39:33;15.40;;;14.10;;
19905;SDS011;10115;50.906;4.438;2024-02-21T08:41:58;16.07;;;14.33;;
19905;SDS011;10115;50.906;4.438;2024-02-21T08:44:24;15.73;;;14.70;;
19905;SDS011;10115;50.906;4.438;2024-02-21T08:46:51;14.33;;;13.47;;
19905;SDS011;10115;50.906;4.438;2024-02-21T08:49:16;16.47;;;14.67;;
19905;SDS011;10115;50.906;4.438;2024-02-21T08:51:42;15.27;;;14.00;;
19905;SDS011;10115;50.906;4.438;2024-02-21T08:54:08;15.23;;;14.13;;
19905;SDS011;10115;50.906;4.438;2024-02-21T08:56:34;13.80;;;12.93;;
19905;SDS011;10115;50.906;4.438;2024-02-21T08:59:00;16.00;;;14.37;;
19905;SDS011;10115;50.906;4.438;2024-02-21T09:01:26;14.47;;;13.50;;
19905;SDS011;10115;50.906;4.438;2024-02-21T09:03:52;14.60;;;13.33;;
19905;SDS011;10115;50.906;4.438;2024-02-21T09:06:18;15.23;;;14.20;;
19905;SDS011;10115;50.906;4.438;2024-02-21T09:08:45;15.30;;;13.93;;
19905;SDS011;10115;50.906;4.438;2024-02-21T09:11:11;13.93;;;12.90;;
19905;SDS011;10115;50.906;4.438;2024-02-21T09:13:36;13.67;;;12.73;;
19905;SDS011;10115;50.906;4.438;2024-02-21T09:16:02;14.73;;;13.83;;
19905;SDS011;10115;50.906;4.438;2024-02-21T09:18:28;14.43;;;13.33;;
19905;SDS011;10115;50.906;4.438;2024-02-21T09:20:54;14.27;;;13.47;;
19905;SDS011;10115;50.906;4.438;2024-02-21T09:23:20;15.03;;;13.73;;
19905;SDS011;10115;50.906;4.438;2024-02-21T09:25:49;15.37;;;13.93;;
19905;SDS011;10115;50.906;4.438;2024-02-21T09:28:15;14.17;;;13.27;;
19905;SDS011;10115;50.906;4.438;2024-02-21T09:30:40;13.87;;;13.00;;
19905;SDS011;10115;50.906;4.438;2024-02-21T09:33:06;15.03;;;13.13;;
19905;SDS011;10115;50.906;4.438;2024-02-21T09:35:31;14.43;;;13.30;;
19905;SDS011;10115;50.906;4.438;2024-02-21T09:37:58;15.50;;;14.07;;
19905;SDS011;10115;50.906;4.438;2024-02-21T09:40:24;13.97;;;13.07;;
19905;SDS011;10115;50.906;4.438;2024-02-21T09:42:50;14.97;;;13.77;;
19905;SDS011;10115;50.906;4.438;2024-02-21T09:45:26;13.20;;;12.40;;
19905;SDS011;10115;50.906;4.438;2024-02-21T09:50:40;14.07;;;13.17;;
19905;SDS011;10115;50.906;4.438;2024-02-21T09:53:08;15.03;;;13.80;;
19905;SDS011;10115;50.906;4.438;2024-02-21T09:55:36;14.87;;;13.57;;
19905;SDS011;10115;50.906;4.438;2024-02-21T09:58:05;15.73;;;14.63;;
19905;SDS011;10115;50.906;4.438;2024-02-21T10:00:32;15.77;;;14.50;;
19905;SDS011;10115;50.906;4.438;2024-02-21T10:02:58;13.57;;;12.67;;
19905;SDS011;10115;50.906;4.438;2024-02-21T10:05:24;13.67;;;12.60;;
19905;SDS011;10115;50.906;4.438;2024-02-21T10:07:50;14.30;;;13.13;;
19905;SDS011;10115;50.906;4.438;2024-02-21T10:10:16;15.10;;;13.67;;
19905;SDS011;10115;50.906;4.438;2024-02-21T10:12:52;13.50;;;12.40;;
19905;SDS011;10115;50.906;4.438;2024-02-21T10:15:23;12.70;;;11.93;;
19905;SDS011;10115;50.906;4.438;2024-02-21T10:17:59;13.67;;;12.33;;
19905;SDS011;10115;50.906;4.438;2024-02-21T10:20:25;13.67;;;12.63;;
19905;SDS011;10115;50.906;4.438;2024-02-21T10:23:05;13.03;;;12.23;;
19905;SDS011;10115;50.906;4.438;2024-02-21T10:25:34;13.07;;;11.93;;
19905;SDS011;10115;50.906;4.438;2024-02-21T10:28:03;14.90;;;12.07;;
19905;SDS011;10115;50.906;4.438;2024-02-21T10:30:29;12.67;;;11.73;;
19905;SDS011;10115;50.906;4.438;2024-02-21T10:32:55;16.07;;;12.63;;
19905;SDS011;10115;50.906;4.438;2024-02-21T10:35:28;12.07;;;11.17;;
19905;SDS011;10115;50.906;4.438;2024-02-21T10:37:55;12.47;;;11.77;;
19905;SDS011;10115;50.906;4.438;2024-02-21T10:40:24;12.87;;;12.03;;
19905;SDS011;10115;50.906;4.438;2024-02-21T10:43:00;13.77;;;12.47;;
19905;SDS011;10115;50.906;4.438;2024-02-21T10:48:11;12.87;;;11.80;;
19905;SDS011;10115;50.906;4.438;2024-02-21T10:50:56;12.10;;;11.50;;
19905;SDS011;10115;50.906;4.438;2024-02-21T10:53:44;14.10;;;12.73;;
19905;SDS011;10115;50.906;4.438;2024-02-21T10:56:20;11.93;;;11.23;;
19905;SDS011;10115;50.906;4.438;2024-02-21T10:58:47;16.57;;;12.27;;
19905;SDS011;10115;50.906;4.438;2024-02-21T11:01:14;11.97;;;10.97;;
19905;SDS011;10115;50.906;4.438;2024-02-21T11:03:41;12.53;;;11.47;;
19905;SDS011;10115;50.906;4.438;2024-02-21T11:06:09;11.53;;;11.03;;
19905;SDS011;10115;50.906;4.438;2024-02-21T11:08:37;19.23;;;11.67;;
19905;SDS011;10115;50.906;4.438;2024-02-21T11:11:04;12.93;;;11.70;;
19905;SDS011;10115;50.906;4.438;2024-02-21T11:13:36;13.97;;;12.63;;
19905;SDS011;10115;50.906;4.438;2024-02-21T11:16:09;12.37;;;11.43;;
19905;SDS011;10115;50.906;4.438;2024-02-21T11:18:36;12.47;;;11.77;;
19905;SDS011;10115;50.906;4.438;2024-02-21T11:21:05;12.30;;;11.60;;
19905;SDS011;10115;50.906;4.438;2024-02-21T11:23:31;11.33;;;10.67;;
19905;SDS011;10115;50.906;4.438;2024-02-21T11:26:09;11.63;;;11.03;;
19905;SDS011;10115;50.906;4.438;2024-02-21T11:28:44;11.73;;;11.10;;
19905;SDS011;10115;50.906;4.438;2024-02-21T11:31:13;11.60;;;10.97;;
19905;SDS011;10115;50.906;4.438;2024-02-21T11:33:39;12.60;;;11.90;;
19905;SDS011;10115;50.906;4.438;2024-02-21T11:36:09;11.70;;;11.10;;
19905;SDS011;10115;50.906;4.438;2024-02-21T11:38:35;13.47;;;12.67;;
19905;SDS011;10115;50.906;4.438;2024-02-21T11:41:01;12.23;;;11.40;;
19905;SDS011;10115;50.906;4.438;2024-02-21T11:43:27;11.63;;;11.13;;
19905;SDS011;10115;50.906;4.438;2024-02-21T11:46:02;11.67;;;11.10;;
19905;SDS011;10115;50.906;4.438;2024-02-21T11:48:28;12.53;;;11.93;;
19905;SDS011;10115;50.906;4.438;2024-02-21T11:50:56;11.97;;;11.27;;
19905;SDS011;10115;50.906;4.438;2024-02-21T11:53:22;12.63;;;12.00;;
19905;SDS011;10115;50.906;4.438;2024-02-21T11:55:48;12.97;;;12.07;;
19905;SDS011;10115;50.906;4.438;2024-02-21T11:58:15;12.80;;;12.00;;
19905;SDS011;10115;50.906;4.438;2024-02-21T12:00:41;14.03;;;12.90;;
19905;SDS011;10115;50.906;4.438;2024-02-21T12:03:07;11.70;;;11.10;;
19905;SDS011;10115;50.906;4.438;2024-02-21T12:05:33;12.20;;;11.50;;
19905;SDS011;10115;50.906;4.438;2024-02-21T12:08:00;12.10;;;11.50;;
19905;SDS011;10115;50.906;4.438;2024-02-21T12:10:26;13.07;;;12.27;;
19905;SDS011;10115;50.906;4.438;2024-02-21T12:15:33;13.17;;;12.43;;
19905;SDS011;10115;50.906;4.438;2024-02-21T12:17:59;12.43;;;11.83;;
19905;SDS011;10115;50.906;4.438;2024-02-21T12:20:25;11.93;;;11.33;;
19905;SDS011;10115;50.906;4.438;2024-02-21T12:22:51;13.73;;;12.57;;
19905;SDS011;10115;50.906;4.438;2024-02-21T12:25:19;13.60;;;12.63;;
19905;SDS011;10115;50.906;4.438;2024-02-21T12:27:51;12.67;;;11.97;;
19905;SDS011;10115;50.906;4.438;2024-02-21T12:30:17;13.27;;;12.50;;
19905;SDS011;10115;50.906;4.438;2024-02-21T12:32:44;13.40;;;12.50;;
19905;SDS011;10115;50.906;4.438;2024-02-21T12:35:10;13.40;;;12.57;;
19905;SDS011;10115;50.906;4.438;2024-02-21T12:37:35;12.30;;;11.67;;
19905;SDS011;10115;50.906;4.438;2024-02-21T12:40:03;12.90;;;12.20;;
19905;SDS011;10115;50.906;4.438;2024-02-21T12:42:31;13.33;;;12.53;;
19905;SDS011;10115;50.906;4.438;2024-02-21T12:44:58;13.50;;;12.57;;
19905;SDS011;10115;50.906;4.438;2024-02-21T12:47:24;12.90;;;12.10;;
19905;SDS011;10115;50.906;4.438;2024-02-21T12:49:51;14.17;;;13.23;;
19905;SDS011;10115;50.906;4.438;2024-02-21T12:52:17;11.93;;;11.23;;
19905;SDS011;10115;50.906;4.438;2024-02-21T12:54:43;13.57;;;12.67;;
19905;SDS011;10115;50.906;4.438;2024-02-21T12:57:09;13.73;;;12.87;;
19905;SDS011;10115;50.906;4.438;2024-02-21T12:59:34;12.17;;;11.57;;
19905;SDS011;10115;50.906;4.438;2024-02-21T13:02:00;14.93;;;13.93;;
19905;SDS011;10115;50.906;4.438;2024-02-21T13:04:26;12.17;;;11.37;;
19905;SDS011;10115;50.906;4.438;2024-02-21T13:06:51;13.03;;;12.13;;
19905;SDS011;10115;50.906;4.438;2024-02-21T13:09:17;13.73;;;12.93;;
19905;SDS011;10115;50.906;4.438;2024-02-21T13:11:43;13.13;;;12.10;;
19905;SDS011;10115;50.906;4.438;2024-02-21T13:14:11;13.40;;;12.57;;
19905;SDS011;10115;50.906;4.438;2024-02-21T13:16:36;12.73;;;11.93;;
19905;SDS011;10115;50.906;4.438;2024-02-21T13:19:07;14.63;;;12.47;;
19905;SDS011;10115;50.906;4.438;2024-02-21T13:21:34;12.17;;;11.57;;
19905;SDS011;10115;50.906;4.438;2024-02-21T13:24:00;12.80;;;12.20;;
19905;SDS011;10115;50.906;4.438;2024-02-21T13:26:26;14.53;;;13.17;;
19905;SDS011;10115;50.906;4.438;2024-02-21T13:28:52;12.13;;;11.43;;
19905;SDS011;10115;50.906;4.438;2024-02-21T13:31:18;14.77;;;13.50;;
19905;SDS011;10115;50.906;4.438;2024-02-21T13:33:44;13.73;;;12.63;;
19905;SDS011;10115;50.906;4.438;2024-02-21T13:36:09;13.53;;;12.43;;
19905;SDS011;10115;50.906;4.438;2024-02-21T13:38:35;12.63;;;12.00;;
19905;SDS011;10115;50.906;4.438;2024-02-21T13:41:01;12.97;;;12.37;;
19905;SDS011;10115;50.906;4.438;2024-02-21T13:43:27;14.17;;;13.27;;
19905;SDS011;10115;50.906;4.438;2024-02-21T13:45:56;15.23;;;14.33;;
19905;SDS011;10115;50.906;4.438;2024-02-21T13:48:27;15.47;;;13.53;;
19905;SDS011;10115;50.906;4.438;2024-02-21T13:50:54;14.97;;;13.87;;
19905;SDS011;10115;50.906;4.438;2024-02-21T13:53:20;14.53;;;13.23;;
19905;SDS011;10115;50.906;4.438;2024-02-21T13:55:46;13.63;;;12.67;;
19905;SDS011;10115;50.906;4.438;2024-02-21T13:58:12;14.50;;;13.60;;
19905;SDS011;10115;50.906;4.438;2024-02-21T14:00:38;13.87;;;13.13;;
19905;SDS011;10115;50.906;4.438;2024-02-21T14:03:03;14.00;;;13.10;;
19905;SDS011;10115;50.906;4.438;2024-02-21T14:05:29;13.47;;;12.70;;
19905;SDS011;10115;50.906;4.438;2024-02-21T14:07:55;14.37;;;13.27;;
19905;SDS011;10115;50.906;4.438;2024-02-21T14:10:21;12.63;;;12.03;;
19905;SDS011;10115;50.906;4.438;2024-02-21T14:12:47;12.97;;;12.30;;
19905;SDS011;10115;50.906;4.438;2024-02-21T14:15:13;13.33;;;12.33;;
19905;SDS011;10115;50.906;4.438;2024-02-21T14:17:39;14.93;;;13.50;;
19905;SDS011;10115;50.906;4.438;2024-02-21T14:20:06;15.37;;;14.03;;
19905;SDS011;10115;50.906;4.438;2024-02-21T14:22:33;13.07;;;12.37;;
19905;SDS011;10115;50.906;4.438;2024-02-21T14:24:59;13.67;;;12.73;;
19905;SDS011;10115;50.906;4.438;2024-02-21T14:27:25;14.97;;;13.50;;